Time;durP1;ratioP1;P1;durP2;ratioP2;P2;SDS_P1;SDS_P2;PMS_P1;PMS_P2;Temp;Humidity;BMP_temperature;BMP_pressure;BME280_temperature;BME280_humidity;BME280_pressure;Samples;Min_cycle;Max_cycle;Signal;HPM_P1;HPM_P2
2023/04/23 00:00:06;;;;;;;317.75;137.18;;;;;;;14.17;91.53;99583.28;278095;34;8792;-79
2023/04/23 00:00:37;;;;;;;319.02;139.13;;;;;;;14.16;91.65;99580.72;277376;35;7864;-79
2023/04/23 00:02:33;;;;;;;305.05;127.06;;;;;;;14.09;89.86;99585.47;2497912;27;20497;-79
2023/04/23 00:02:43;;;;;;;318.93;138.00;;;;;;;13.99;90.15;99582.50;351727;28;1344;-80
2023/04/23 00:02:54;;;;;;;319.27;137.18;;;;;;;14.04;90.25;99582.25;350509;28;1281;-79
2023/04/23 00:03:09;;;;;;;320.90;137.23;;;;;;;14.04;90.44;99587.53;350595;28;902;-79
2023/04/23 00:03:19;;;;;;;313.65;132.98;;;;;;;14.02;90.29;99581.50;350351;28;2380;-79
2023/04/23 00:03:31;;;;;;;314.67;134.50;;;;;;;14.03;90.12;99583.19;347208;28;2464;-79
2023/04/23 00:03:42;;;;;;;317.20;136.75;;;;;;;13.98;90.17;99586.06;347580;28;1344;-79
2023/04/23 00:03:55;;;;;;;322.23;138.50;;;;;;;13.96;90.12;99584.47;347495;28;1231;-79
2023/04/23 00:04:07;;;;;;;322.13;138.00;;;;;;;14.00;90.40;99586.00;349079;28;1385;-79
2023/04/23 00:04:17;;;;;;;316.60;136.15;;;;;;;14.03;90.54;99591.09;350153;28;1741;-79
2023/04/23 00:04:28;;;;;;;316.10;133.13;;;;;;;13.95;90.88;99577.50;349787;28;2375;-79
2023/04/23 00:04:39;;;;;;;322.10;136.70;;;;;;;14.01;90.53;99585.06;350729;28;1247;-79
2023/04/23 00:04:50;;;;;;;327.33;139.43;;;;;;;14.03;90.32;99591.09;349057;28;1284;-78
2023/04/23 00:05:03;;;;;;;324.92;138.93;;;;;;;14.03;90.14;99591.09;347694;28;1301;-78
2023/04/23 00:05:14;;;;;;;320.65;135.77;;;;;;;14.02;90.02;99589.38;346330;28;1403;-78
2023/04/23 00:05:26;;;;;;;317.50;133.88;;;;;;;14.01;90.60;99595.59;348375;28;1812;-78
2023/04/23 00:05:37;;;;;;;320.23;135.23;;;;;;;13.95;90.06;99582.75;349249;28;2875;-78
2023/04/23 00:05:49;;;;;;;320.52;136.25;;;;;;;13.92;90.04;99582.94;346294;28;1227;-78
2023/04/23 00:06:04;;;;;;;324.45;137.60;;;;;;;13.87;90.11;99591.06;346189;28;1366;-78
2023/04/23 00:06:16;;;;;;;319.35;135.18;;;;;;;13.82;90.45;99587.88;350344;28;1408;-78
2023/04/23 00:06:27;;;;;;;313.63;133.55;;;;;;;13.82;90.63;99589.66;348445;28;1334;-78
2023/04/23 00:06:37;;;;;;;317.60;135.07;;;;;;;13.81;90.61;99590.59;349352;28;2424;-78
2023/04/23 00:06:48;;;;;;;316.73;132.95;;;;;;;13.77;90.72;99584.63;348086;28;2774;-78
2023/04/23 00:06:58;;;;;;;326.80;135.93;;;;;;;13.77;90.51;99583.78;348348;28;1401;-78
2023/04/23 00:07:09;;;;;;;324.70;133.18;;;;;;;13.79;90.50;99581.94;348952;28;1246;-78
2023/04/23 00:07:20;;;;;;;324.92;134.40;;;;;;;13.80;90.26;99584.47;344999;28;1373;-78
2023/04/23 00:07:32;;;;;;;317.23;133.05;;;;;;;13.79;90.33;99579.28;346076;28;1411;-78
2023/04/23 00:07:42;;;;;;;319.23;136.63;;;;;;;13.80;90.61;99589.72;345590;28;2395;-78
2023/04/23 00:07:53;;;;;;;320.70;136.45;;;;;;;13.81;90.64;99590.59;345223;28;1265;-78
2023/04/23 00:08:04;;;;;;;323.00;135.53;;;;;;;13.80;90.56;99578.38;344878;28;1366;-78
2023/04/23 00:08:15;;;;;;;323.00;134.48;;;;;;;13.84;90.70;99591.28;344402;28;1551;-78
2023/04/23 00:08:26;;;;;;;321.02;134.50;;;;;;;13.80;90.86;99581.84;344637;28;1300;-78
2023/04/23 00:08:39;;;;;;;315.93;133.50;;;;;;;13.87;90.66;99587.59;344723;28;1275;-78
2023/04/23 00:08:51;;;;;;;316.90;131.95;;;;;;;13.92;90.57;99589.03;341355;28;2494;-78
2023/04/23 00:09:02;;;;;;;317.52;133.90;;;;;;;13.86;90.56;99578.03;345996;28;1161;-78
2023/04/23 00:09:14;;;;;;;328.08;137.30;;;;;;;13.95;90.45;99598.53;343418;28;1387;-78
2023/04/23 00:09:25;;;;;;;326.10;137.10;;;;;;;13.95;90.45;99591.50;341161;28;1329;-78
2023/04/23 00:09:35;;;;;;;318.90;135.00;;;;;;;13.96;90.23;99593.19;344676;28;2229;-78
2023/04/23 00:09:46;;;;;;;315.70;135.60;;;;;;;13.97;90.44;99587.00;343246;28;2819;-80
2023/04/23 00:09:56;;;;;;;318.63;137.73;;;;;;;13.95;90.13;99585.38;340857;28;2410;-79
2023/04/23 00:10:07;;;;;;;321.47;138.83;;;;;;;13.92;90.17;99582.94;341811;28;2804;-80
2023/04/23 00:10:18;;;;;;;321.50;137.85;;;;;;;13.92;90.21;99591.66;343522;28;2782;-80
2023/04/23 00:10:28;;;;;;;320.07;134.60;;;;;;;13.89;90.31;99585.72;342424;28;1411;-81
2023/04/23 00:10:39;;;;;;;317.50;133.40;;;;;;;13.86;90.38;99583.28;336309;29;2607;-81
2023/04/23 00:10:49;;;;;;;321.48;136.48;;;;;;;13.92;90.39;99588.19;336240;29;1832;-79
2023/04/23 00:11:00;;;;;;;322.40;137.98;;;;;;;13.88;90.43;99582.25;336475;29;1438;-79
2023/04/23 00:11:11;;;;;;;326.03;140.17;;;;;;;13.92;90.64;99582.94;336088;29;3047;-79
2023/04/23 00:11:21;;;;;;;325.80;138.68;;;;;;;13.89;90.45;99585.72;336859;29;1913;-79
2023/04/23 00:11:32;;;;;;;322.75;135.55;;;;;;;13.93;90.70;99585.47;337136;29;1289;-78
2023/04/23 00:11:42;;;;;;;318.53;133.87;;;;;;;13.97;90.47;99588.78;337328;29;2226;-78
2023/04/23 00:11:53;;;;;;;319.70;136.13;;;;;;;13.95;90.51;99588.03;337778;29;1864;-78
2023/04/23 00:12:06;;;;;;;322.27;139.13;;;;;;;13.98;90.56;99587.84;338141;29;1258;-79
2023/04/23 00:12:16;;;;;;;323.90;139.07;;;;;;;14.00;90.37;99591.25;338016;29;898;-79
2023/04/23 00:12:27;;;;;;;321.45;137.13;;;;;;;14.00;90.35;99596.50;336778;29;2991;-79
2023/04/23 00:12:38;;;;;;;323.30;139.75;;;;;;;13.99;90.08;99595.66;334887;29;1864;-79
2023/04/23 00:12:49;;;;;;;317.73;135.80;;;;;;;13.93;90.06;99585.47;334946;29;2686;-78
2023/04/23 00:13:00;;;;;;;322.00;136.90;;;;;;;13.98;89.83;99590.47;332621;29;1977;-78
2023/04/23 00:13:10;;;;;;;319.98;134.73;;;;;;;13.96;90.18;99587.94;329280;29;2731;-78
2023/04/23 00:13:21;;;;;;;327.27;139.98;;;;;;;13.95;90.28;99582.75;328122;30;1364;-78
2023/04/23 00:13:31;;;;;;;325.50;140.18;;;;;;;13.95;90.32;99591.50;332669;29;2229;-78
2023/04/23 00:13:43;;;;;;;325.90;139.67;;;;;;;13.97;90.25;99591.41;331871;29;1686;-78
2023/04/23 00:13:53;;;;;;;319.40;136.55;;;;;;;13.91;90.14;99578.59;329922;29;1506;-78
2023/04/23 00:14:04;;;;;;;318.23;138.05;;;;;;;13.94;90.10;99591.59;329297;29;2514;-78
2023/04/23 00:14:15;;;;;;;320.38;138.90;;;;;;;14.00;90.63;99591.25;326952;30;1204;-78
2023/04/23 00:14:25;;;;;;;326.30;142.05;;;;;;;14.01;90.33;99592.09;330228;29;1667;-78
2023/04/23 00:14:36;;;;;;;325.87;138.70;;;;;;;14.01;90.44;99586.84;330675;29;958;-78
2023/04/23 00:14:46;;;;;;;325.10;139.95;;;;;;;13.99;90.25;99594.81;331223;29;1714;-78
2023/04/23 00:14:58;;;;;;;320.57;138.03;;;;;;;14.00;89.95;99591.25;331899;29;2142;-78
2023/04/23 00:15:09;;;;;;;321.70;140.30;;;;;;;14.00;89.96;99593.88;327764;29;2461;-78
2023/04/23 00:15:21;;;;;;;323.00;138.60;;;;;;;13.98;89.93;99587.84;320897;30;950;-78
2023/04/23 00:15:31;;;;;;;326.15;140.80;;;;;;;13.97;89.86;99588.78;324761;30;2462;-80
2023/04/23 00:15:42;;;;;;;324.93;139.00;;;;;;;13.95;89.88;99594.13;323723;30;2650;-81
2023/04/23 00:15:53;;;;;;;325.03;139.10;;;;;;;13.92;89.83;99593.44;321085;30;1909;-80
2023/04/23 00:16:04;;;;;;;318.95;136.45;;;;;;;13.90;90.08;99584.78;320437;30;2829;-80
2023/04/23 00:16:14;;;;;;;319.98;138.55;;;;;;;13.73;90.23;99587.50;322774;30;2319;-80
2023/04/23 00:16:26;;;;;;;319.33;137.45;;;;;;;13.57;90.90;99585.69;321788;30;1887;-81
2023/04/23 00:16:38;;;;;;;328.52;141.02;;;;;;;13.39;91.80;99594.59;317698;31;885;-79
2023/04/23 00:16:48;;;;;;;325.48;138.73;;;;;;;13.24;92.53;99590.13;313777;31;2985;-79
2023/04/23 00:16:59;;;;;;;324.25;138.98;;;;;;;13.14;93.39;99588.88;318442;30;2645;-80
2023/04/23 00:17:09;;;;;;;321.20;136.67;;;;;;;13.07;94.19;99592.72;314272;31;3434;-81
2023/04/23 00:17:20;;;;;;;325.35;138.45;;;;;;;13.09;94.45;99591.72;311289;31;2353;-81
2023/04/23 00:17:30;;;;;;;326.13;138.37;;;;;;;13.07;94.31;99592.72;311134;31;3498;-81
2023/04/23 00:17:41;;;;;;;328.85;139.25;;;;;;;12.98;95.18;99587.06;312347;31;3286;-81
2023/04/23 00:17:51;;;;;;;329.97;139.87;;;;;;;12.93;95.15;99593.47;311850;31;2809;-82
2023/04/23 00:18:01;;;;;;;329.73;139.05;;;;;;;12.87;95.94;99586.75;315967;31;2753;-81
2023/04/23 00:18:12;;;;;;;322.60;135.93;;;;;;;12.89;96.16;99595.41;312947;31;2247;-81
2023/04/23 00:18:23;;;;;;;319.48;132.88;;;;;;;12.84;95.88;99593.94;307435;31;2500;-81
2023/04/23 00:18:33;;;;;;;320.83;133.93;;;;;;;12.88;96.41;99593.69;306473;32;3116;-81
2023/04/23 00:18:43;;;;;;;328.23;136.52;;;;;;;12.91;96.17;99580.41;305275;32;3247;-81
2023/04/23 00:18:54;;;;;;;331.23;139.00;;;;;;;12.95;96.21;99584.56;303815;32;3297;-81
2023/04/23 00:19:04;;;;;;;337.13;141.63;;;;;;;13.02;96.08;99581.63;303475;32;1389;-81
2023/04/23 00:19:15;;;;;;;333.40;139.83;;;;;;;13.13;96.05;99597.69;306256;32;3888;-81
2023/04/23 00:19:25;;;;;;;325.85;136.02;;;;;;;13.20;95.51;99594.69;303190;32;4772;-81
2023/04/23 00:19:35;;;;;;;322.77;134.43;;;;;;;13.24;95.23;99590.13;302646;32;900;-79
2023/04/23 00:19:46;;;;;;;323.23;134.47;;;;;;;13.29;94.86;99593.38;299408;32;5045;-79
2023/04/23 00:19:56;;;;;;;328.42;136.48;;;;;;;13.26;94.60;99583.88;299803;32;4676;-79
2023/04/23 00:20:08;;;;;;;329.42;135.95;;;;;;;13.33;94.41;99587.03;298756;33;1787;-80
2023/04/23 00:20:18;;;;;;;327.02;136.23;;;;;;;13.41;94.04;99592.72;292065;33;1474;-80
2023/04/23 00:20:29;;;;;;;326.40;137.33;;;;;;;13.42;93.67;99589.16;294768;33;3088;-80
2023/04/23 00:20:39;;;;;;;325.55;137.20;;;;;;;13.47;93.66;99592.38;294903;33;3349;-80
2023/04/23 00:20:49;;;;;;;327.73;135.60;;;;;;;13.51;93.79;99599.16;295121;33;1534;-80
2023/04/23 00:21:00;;;;;;;327.15;136.48;;;;;;;13.55;93.36;99589.34;289473;33;4030;-80
2023/04/23 00:21:10;;;;;;;327.67;138.73;;;;;;;13.56;93.36;99591.91;289234;33;5370;-80
2023/04/23 00:21:21;;;;;;;323.27;139.23;;;;;;;13.58;92.98;99590.03;290196;34;1346;-80
2023/04/23 00:21:31;;;;;;;324.90;140.33;;;;;;;13.57;92.94;99588.34;283221;34;6575;-80
2023/04/23 00:21:42;;;;;;;327.52;141.27;;;;;;;13.59;93.25;99594.34;284413;34;6961;-80
2023/04/23 00:21:52;;;;;;;329.77;142.47;;;;;;;13.61;92.94;99589.03;284046;34;6835;-80
2023/04/23 00:22:03;;;;;;;331.02;141.65;;;;;;;13.59;92.60;99589.09;284710;34;1122;-81
2023/04/23 00:22:15;;;;;;;334.60;140.07;;;;;;;13.62;92.51;99591.56;283686;34;7359;-81
2023/04/23 00:22:26;;;;;;;329.98;137.10;;;;;;;13.62;92.33;99596.81;283044;34;5906;-79
2023/04/23 00:22:36;;;;;;;322.73;136.00;;;;;;;13.65;92.33;99594.03;282600;35;2325;-80
2023/04/23 00:22:47;;;;;;;323.53;136.70;;;;;;;13.64;92.11;99594.97;279007;34;3956;-80
2023/04/23 00:22:57;;;;;;;332.92;141.38;;;;;;;13.67;91.99;99593.94;274421;35;4749;-80
2023/04/23 00:23:08;;;;;;;335.53;143.60;;;;;;;13.65;91.92;99591.41;270768;35;7053;-80
2023/04/23 00:23:18;;;;;;;334.83;145.43;;;;;;;13.66;92.08;99592.25;273254;36;1378;-80
2023/04/23 00:25:16;;;;;;;306.17;122.79;;;;;;;13.50;92.21;99586.09;2489478;27;20269;-78
2023/04/23 00:25:26;;;;;;;320.67;134.23;;;;;;;13.57;92.15;99593.59;351323;28;1392;-78
2023/04/23 00:25:37;;;;;;;317.08;132.70;;;;;;;13.58;92.41;99592.66;347205;28;3325;-78
2023/04/23 00:25:48;;;;;;;319.67;136.30;;;;;;;13.60;92.30;99593.44;346043;28;2754;-78
2023/04/23 00:25:58;;;;;;;318.70;133.82;;;;;;;13.63;92.11;99598.53;345007;28;2645;-80
2023/04/23 00:26:09;;;;;;;323.80;135.50;;;;;;;13.60;92.27;99593.44;344918;28;1258;-81
2023/04/23 00:26:19;;;;;;;320.63;132.13;;;;;;;13.60;92.30;99593.44;346210;28;2756;-81
2023/04/23 00:26:30;;;;;;;322.87;133.33;;;;;;;13.58;92.03;99584.78;347187;28;1232;-81
2023/04/23 00:26:40;;;;;;;317.83;131.25;;;;;;;13.60;92.27;99593.44;349479;28;1158;-81
2023/04/23 00:26:51;;;;;;;319.27;134.30;;;;;;;13.60;92.15;99589.94;347443;28;2285;-81
2023/04/23 00:27:02;;;;;;;317.40;133.27;;;;;;;13.62;92.14;99596.81;347544;28;908;-81
2023/04/23 00:27:12;;;;;;;321.80;134.65;;;;;;;13.61;91.90;99594.28;349001;28;1369;-81
2023/04/23 00:27:23;;;;;;;320.10;132.60;;;;;;;13.66;91.91;99589.63;350019;28;1332;-81
2023/04/23 00:27:33;;;;;;;320.55;133.40;;;;;;;13.65;92.05;99596.66;349006;28;1279;-81
2023/04/23 00:27:44;;;;;;;316.03;133.77;;;;;;;13.65;92.24;99591.41;349142;28;2989;-81
2023/04/23 00:27:54;;;;;;;316.73;132.98;;;;;;;13.70;92.48;99598.19;348885;28;2348;-81
2023/04/23 00:28:04;;;;;;;319.70;135.07;;;;;;;13.68;92.01;99594.81;349060;28;1202;-81
2023/04/23 00:28:15;;;;;;;324.25;134.02;;;;;;;13.70;92.45;99590.31;349078;28;778;-81
2023/04/23 00:28:26;;;;;;;322.15;132.20;;;;;;;13.69;92.14;99597.34;349025;28;1490;-81
2023/04/23 00:28:36;;;;;;;321.30;131.03;;;;;;;13.74;92.13;99602.38;350335;28;1261;-80
2023/04/23 00:28:47;;;;;;;316.90;131.63;;;;;;;13.70;92.21;99587.69;348666;28;2615;-80
2023/04/23 00:28:57;;;;;;;320.50;135.77;;;;;;;13.64;92.16;99584.44;344611;28;2632;-79
2023/04/23 00:29:07;;;;;;;324.23;138.07;;;;;;;13.73;91.98;99598.03;348905;28;1226;-79
2023/04/23 00:29:18;;;;;;;328.85;140.70;;;;;;;13.63;91.96;99595.91;348959;28;1435;-79
2023/04/23 00:29:28;;;;;;;326.67;138.47;;;;;;;13.57;92.48;99593.59;342396;28;1404;-79
2023/04/23 00:29:39;;;;;;;321.85;136.32;;;;;;;13.53;92.60;99585.94;346212;28;1195;-79
2023/04/23 00:29:50;;;;;;;316.85;133.35;;;;;;;13.59;92.74;99597.00;346623;28;3339;-79
2023/04/23 00:30:02;;;;;;;316.53;134.80;;;;;;;13.54;93.22;99588.50;344967;28;2622;-78
2023/04/23 00:30:12;;;;;;;316.60;132.20;;;;;;;13.55;92.99;99590.19;344932;28;1280;-78
2023/04/23 00:30:23;;;;;;;318.30;132.52;;;;;;;13.46;92.84;99598.56;343615;28;1236;-78
2023/04/23 00:30:33;;;;;;;317.43;130.77;;;;;;;13.42;93.07;99593.59;347594;28;3103;-78
2023/04/23 00:30:43;;;;;;;320.50;131.73;;;;;;;13.50;93.21;99602.72;344915;28;1250;-78
2023/04/23 00:30:54;;;;;;;319.07;131.80;;;;;;;13.50;93.07;99592.22;345179;28;3508;-78
2023/04/23 00:31:04;;;;;;;318.73;132.00;;;;;;;13.54;93.33;99593.75;343161;28;2630;-81
2023/04/23 00:31:14;;;;;;;318.43;133.50;;;;;;;13.53;93.31;99584.16;342867;28;2752;-80
2023/04/23 00:31:26;;;;;;;325.23;138.70;;;;;;;13.51;93.26;99588.66;343991;28;1191;-80
2023/04/23 00:31:36;;;;;;;323.88;137.50;;;;;;;13.51;93.50;99593.91;342624;28;1298;-80
2023/04/23 00:31:46;;;;;;;320.70;134.33;;;;;;;13.54;93.45;99593.75;341092;29;1008;-81
2023/04/23 00:31:57;;;;;;;315.07;129.73;;;;;;;13.55;92.96;99594.59;345215;28;1818;-79
2023/04/23 00:32:07;;;;;;;318.45;132.07;;;;;;;13.56;93.34;99597.16;341463;28;2505;-79
2023/04/23 00:32:18;;;;;;;319.43;133.10;;;;;;;13.57;93.45;99592.75;344968;28;1245;-79
2023/04/23 00:32:28;;;;;;;321.80;134.25;;;;;;;13.56;93.40;99598.94;340925;29;1365;-79
2023/04/23 00:32:39;;;;;;;320.43;134.73;;;;;;;13.52;93.26;99590.34;340798;29;3042;-79
2023/04/23 00:32:49;;;;;;;323.23;134.15;;;;;;;13.54;93.26;99599.00;343636;28;1422;-79
2023/04/23 00:33:00;;;;;;;317.45;130.57;;;;;;;13.53;93.16;99602.56;339207;29;2607;-79
2023/04/23 00:33:10;;;;;;;316.90;131.00;;;;;;;13.55;93.27;99597.22;342469;28;2233;-79
2023/04/23 00:33:21;;;;;;;316.83;132.20;;;;;;;13.59;93.31;99602.25;339353;29;1376;-79
2023/04/23 00:33:31;;;;;;;322.20;135.60;;;;;;;13.57;92.92;99598.84;338281;29;1246;-79
2023/04/23 00:33:41;;;;;;;321.10;134.77;;;;;;;13.58;93.10;99597.91;341653;28;2979;-79
2023/04/23 00:33:52;;;;;;;320.52;134.88;;;;;;;13.56;93.33;99593.66;341083;28;1643;-78
2023/04/23 00:34:03;;;;;;;317.08;133.05;;;;;;;13.54;93.35;99592.91;336297;29;2664;-78
2023/04/23 00:34:13;;;;;;;319.87;133.10;;;;;;;13.54;93.06;99591.13;331803;29;2562;-80
2023/04/23 00:34:25;;;;;;;322.77;133.18;;;;;;;13.54;93.26;99596.38;332315;29;1228;-80
2023/04/23 00:34:35;;;;;;;325.70;134.02;;;;;;;13.53;93.47;99596.47;333079;29;1288;-79
2023/04/23 00:34:47;;;;;;;323.45;133.73;;;;;;;13.54;93.56;99600.78;331973;29;1232;-79
2023/04/23 00:34:58;;;;;;;319.98;133.30;;;;;;;13.55;93.93;99595.44;337815;29;1323;-79
2023/04/23 00:35:08;;;;;;;316.97;132.07;;;;;;;13.46;94.15;99603.81;339487;28;3330;-79
2023/04/23 00:35:19;;;;;;;318.38;133.40;;;;;;;13.40;94.21;99600.69;334942;29;2491;-79
2023/04/23 00:35:30;;;;;;;323.70;134.98;;;;;;;13.22;94.66;99591.97;330476;29;2007;-80
2023/04/23 00:35:40;;;;;;;337.13;139.23;;;;;;;13.14;95.27;99594.13;333044;29;1782;-79
2023/04/23 00:35:51;;;;;;;337.43;140.03;;;;;;;13.05;95.86;99595.44;332136;29;2001;-79
2023/04/23 00:36:01;;;;;;;334.02;137.85;;;;;;;13.00;96.60;99593.03;329737;29;1366;-79
2023/04/23 00:36:12;;;;;;;324.17;134.13;;;;;;;12.93;96.96;99588.22;332861;29;2242;-79
2023/04/23 00:36:22;;;;;;;322.95;134.48;;;;;;;12.92;97.44;99597.03;331885;29;2827;-79
2023/04/23 00:36:33;;;;;;;326.27;136.33;;;;;;;12.85;97.74;99599.09;331561;29;2975;-79
2023/04/23 00:36:43;;;;;;;328.88;135.85;;;;;;;12.87;98.11;99594.63;336503;29;1445;-79
2023/04/23 00:36:54;;;;;;;327.23;132.97;;;;;;;12.91;98.58;99598.78;332900;29;3060;-79
2023/04/23 00:37:05;;;;;;;321.88;129.50;;;;;;;12.92;98.38;99589.13;330629;29;1244;-79
2023/04/23 00:37:16;;;;;;;319.50;128.43;;;;;;;12.92;98.36;99603.13;331592;29;2774;-79
2023/04/23 00:37:26;;;;;;;322.53;127.10;;;;;;;12.89;98.34;99600.66;329310;29;2459;-80
2023/04/23 00:37:37;;;;;;;324.40;129.63;;;;;;;12.82;98.98;99599.25;322944;29;1903;-79
2023/04/23 00:37:47;;;;;;;326.87;132.97;;;;;;;12.78;99.31;99602.09;321467;30;1361;-79
2023/04/23 00:37:58;;;;;;;327.00;135.80;;;;;;;12.68;99.53;99599.09;320705;30;2361;-79
2023/04/23 00:38:08;;;;;;;325.30;134.48;;;;;;;12.73;99.93;99594.47;321089;30;2290;-79
2023/04/23 00:38:20;;;;;;;324.83;134.17;;;;;;;12.77;100.00;99595.16;319987;30;1353;-79
2023/04/23 00:38:30;;;;;;;322.15;131.98;;;;;;;12.83;99.97;99600.97;317096;30;2422;-79
2023/04/23 00:38:40;;;;;;;319.33;130.38;;;;;;;12.83;99.56;99595.69;318461;30;2889;-79
2023/04/23 00:38:51;;;;;;;324.93;133.70;;;;;;;12.83;99.69;99600.97;316179;31;1218;-79
2023/04/23 00:39:01;;;;;;;326.63;133.70;;;;;;;12.77;99.82;99603.03;316439;31;1243;-79
2023/04/23 00:39:12;;;;;;;329.30;134.97;;;;;;;12.65;100.00;99601.88;314772;31;1733;-78
2023/04/23 00:39:22;;;;;;;323.00;130.40;;;;;;;12.63;100.00;99593.22;311719;31;2707;-79
2023/04/23 00:39:33;;;;;;;322.00;130.25;;;;;;;12.63;100.00;99587.97;309258;31;2467;-79
2023/04/23 00:39:43;;;;;;;324.70;131.57;;;;;;;12.73;100.00;99593.59;314019;31;3135;-79
2023/04/23 00:39:53;;;;;;;331.65;136.45;;;;;;;12.76;100.00;99599.56;313930;31;2680;-79
2023/04/23 00:40:04;;;;;;;332.10;136.63;;;;;;;12.81;100.00;99600.19;310816;31;1217;-79
2023/04/23 00:40:15;;;;;;;326.15;132.70;;;;;;;12.86;100.00;99600.81;304433;32;1477;-80
2023/04/23 00:40:25;;;;;;;320.38;128.05;;;;;;;12.87;100.00;99596.41;307473;31;3024;-80
2023/04/23 00:40:36;;;;;;;323.43;128.83;;;;;;;12.85;99.83;99596.47;303560;32;3379;-80
2023/04/23 00:40:46;;;;;;;323.17;129.32;;;;;;;12.92;100.00;99603.13;302749;32;2882;-80
2023/04/23 00:40:57;;;;;;;326.53;131.57;;;;;;;12.92;99.87;99590.00;306878;31;2276;-80
2023/04/23 00:41:07;;;;;;;321.52;131.32;;;;;;;12.98;99.84;99594.09;304883;32;2906;-80
2023/04/23 00:41:17;;;;;;;323.07;131.57;;;;;;;13.02;99.55;99595.59;302731;32;1115;-80
2023/04/23 00:41:28;;;;;;;324.37;131.43;;;;;;;13.05;99.52;99605.09;297331;32;2836;-80
2023/04/23 00:41:40;;;;;;;328.08;132.55;;;;;;;13.05;99.13;99598.06;295996;32;3635;-80
2023/04/23 00:41:50;;;;;;;328.70;132.38;;;;;;;13.07;99.24;99598.00;297290;32;4366;-80
2023/04/23 00:42:05;;;;;;;326.40;133.05;;;;;;;13.05;98.97;99599.84;297196;33;831;-81
2023/04/23 00:42:16;;;;;;;325.23;132.65;;;;;;;12.99;98.88;99596.63;297236;33;1366;-81
2023/04/23 00:42:27;;;;;;;324.13;131.73;;;;;;;13.06;98.91;99598.91;294122;33;4824;-80
2023/04/23 00:42:37;;;;;;;320.58;131.05;;;;;;;13.06;99.07;99605.03;292786;32;4560;-80
2023/04/23 00:42:51;;;;;;;321.83;132.10;;;;;;;13.08;99.22;99599.69;291897;33;2792;-80
2023/04/23 00:43:01;;;;;;;322.63;130.13;;;;;;;13.08;98.97;99599.69;295270;33;2281;-80
2023/04/23 00:43:12;;;;;;;325.23;129.50;;;;;;;13.11;98.78;99594.28;293095;33;2866;-80
2023/04/23 00:43:23;;;;;;;328.52;133.40;;;;;;;13.13;98.94;99600.31;289470;33;3182;-80
2023/04/23 00:43:33;;;;;;;330.20;135.70;;;;;;;13.13;98.79;99598.53;287950;34;1264;-80
2023/04/23 00:43:44;;;;;;;326.38;134.60;;;;;;;13.14;98.41;99596.75;287895;34;4454;-80
2023/04/23 00:43:56;;;;;;;322.90;131.85;;;;;;;13.15;98.33;99595.81;287500;33;5503;-80
2023/04/23 00:44:07;;;;;;;320.63;132.77;;;;;;;13.19;98.47;99602.66;283598;34;7283;-80
2023/04/23 00:44:18;;;;;;;321.35;135.13;;;;;;;13.13;98.05;99593.28;278328;35;1456;-80
2023/04/23 00:44:28;;;;;;;325.60;136.88;;;;;;;13.19;98.10;99597.41;279918;34;7047;-80
2023/04/23 00:44:39;;;;;;;326.90;136.03;;;;;;;13.21;98.20;99601.66;280275;34;7171;-80
2023/04/23 00:44:49;;;;;;;326.38;134.75;;;;;;;13.21;98.06;99599.03;280991;35;1273;-80
2023/04/23 00:45:00;;;;;;;323.73;134.30;;;;;;;13.24;97.84;99608.53;276344;35;1854;-80
2023/04/23 00:45:11;;;;;;;322.98;134.63;;;;;;;13.24;97.95;99603.28;271601;35;6622;-80
2023/04/23 00:45:21;;;;;;;322.73;134.33;;;;;;;13.18;98.08;99593.06;269748;36;5216;-80
2023/04/23 00:47:13;;;;;;;306.89;118.75;;;;;;;13.00;99.39;99603.56;2495261;27;20282;-80
2023/04/23 00:47:23;;;;;;;312.97;126.73;;;;;;;12.98;99.18;99600.19;352059;28;2782;-81
2023/04/23 00:47:34;;;;;;;314.88;126.80;;;;;;;12.96;99.26;99599.41;348911;28;2876;-80
2023/04/23 00:47:45;;;;;;;318.63;127.20;;;;;;;12.97;99.44;99601.13;347679;28;1346;-79
2023/04/23 00:47:56;;;;;;;318.38;127.57;;;;;;;13.00;99.51;99600.06;347643;28;966;-79
2023/04/23 00:48:06;;;;;;;314.83;128.63;;;;;;;13.03;99.40;99599.06;348685;28;2814;-79
2023/04/23 00:48:16;;;;;;;315.13;130.35;;;;;;;13.03;99.32;99599.91;347219;28;2492;-79
2023/04/23 00:48:27;;;;;;;318.53;130.50;;;;;;;12.95;99.50;99596.88;346784;28;1422;-77
2023/04/23 00:48:38;;;;;;;320.92;129.50;;;;;;;12.91;99.52;99598.78;346208;28;1358;-78
2023/04/23 00:48:48;;;;;;;320.15;128.00;;;;;;;12.87;99.59;99602.50;344850;28;1303;-80
2023/04/23 00:48:58;;;;;;;318.67;127.87;;;;;;;12.86;100.00;99613.94;345582;28;896;-81
2023/04/23 00:49:09;;;;;;;316.57;128.13;;;;;;;12.81;100.00;99607.22;347487;28;1344;-81
2023/04/23 00:49:20;;;;;;;317.80;126.57;;;;;;;12.85;100.00;99611.38;346552;28;2470;-81
2023/04/23 00:49:31;;;;;;;320.34;126.80;;;;;;;12.84;100.00;99605.28;343544;28;3093;-79
2023/04/23 00:49:42;;;;;;;325.53;130.07;;;;;;;12.76;100.00;99599.56;347714;28;793;-80
2023/04/23 00:49:54;;;;;;;322.88;130.07;;;;;;;12.79;100.00;99609.91;348110;28;2833;-79
2023/04/23 00:50:05;;;;;;;321.27;128.88;;;;;;;12.69;100.00;99603.41;348895;28;1433;-80
2023/04/23 00:50:15;;;;;;;316.02;126.47;;;;;;;12.62;100.00;99607.25;350080;28;1807;-80
2023/04/23 00:50:26;;;;;;;314.40;125.20;;;;;;;12.58;100.00;99603.09;348021;28;2384;-80
2023/04/23 00:50:36;;;;;;;316.00;126.80;;;;;;;12.53;100.00;99598.09;349244;28;1418;-80
2023/04/23 00:50:59;;;;;;;319.40;127.97;;;;;;;12.58;100.00;99606.56;350382;28;960;-80
2023/04/23 00:51:09;;;;;;;317.08;125.28;;;;;;;12.58;100.00;99600.47;349220;28;1139;-80
2023/04/23 00:51:20;;;;;;;315.30;125.40;;;;;;;12.64;100.00;99605.41;348541;28;2401;-80
2023/04/23 00:51:31;;;;;;;314.73;125.28;;;;;;;12.63;100.00;99601.09;348403;28;2737;-81
2023/04/23 00:51:41;;;;;;;318.67;125.37;;;;;;;12.61;100.00;99595.06;347966;28;926;-81
2023/04/23 00:51:52;;;;;;;325.10;130.13;;;;;;;12.65;100.00;99607.13;344769;28;1325;-81
2023/04/23 00:52:02;;;;;;;324.83;130.57;;;;;;;12.69;100.00;99610.44;345050;28;1210;-81
2023/04/23 00:52:13;;;;;;;322.85;132.43;;;;;;;12.74;100.00;99605.81;343912;28;1185;-80
2023/04/23 00:52:24;;;;;;;313.63;125.70;;;;;;;12.78;100.00;99605.59;346997;28;3321;-80
2023/04/23 00:52:35;;;;;;;315.35;127.15;;;;;;;12.76;100.00;99609.22;344053;28;2472;-80
2023/04/23 00:52:46;;;;;;;314.10;126.93;;;;;;;12.78;100.00;99608.22;340881;29;1348;-80
2023/04/23 00:52:56;;;;;;;320.05;128.77;;;;;;;12.68;100.00;99601.72;347340;28;1404;-80
2023/04/23 00:53:07;;;;;;;320.53;128.10;;;;;;;12.66;100.00;99601.78;345499;28;1141;-80
2023/04/23 00:53:18;;;;;;;319.38;127.47;;;;;;;12.69;100.00;99602.56;343707;28;1270;-80
2023/04/23 00:53:29;;;;;;;316.43;127.67;;;;;;;12.72;100.00;99610.28;342651;28;2714;-80
2023/04/23 00:53:40;;;;;;;318.08;129.23;;;;;;;12.75;100.00;99611.00;341988;28;2695;-80
2023/04/23 00:53:50;;;;;;;320.65;129.73;;;;;;;12.76;100.00;99599.56;345314;28;2741;-80
2023/04/23 00:54:02;;;;;;;323.13;129.20;;;;;;;12.75;100.00;99603.13;342071;28;3070;-80
2023/04/23 00:54:13;;;;;;;320.98;128.75;;;;;;;12.70;100.00;99599.88;339656;29;1561;-81
2023/04/23 00:54:23;;;;;;;314.23;126.53;;;;;;;12.65;100.00;99602.72;344299;28;904;-81
2023/04/23 00:54:34;;;;;;;318.40;127.13;;;;;;;12.65;100.00;99601.88;342208;28;1305;-80
2023/04/23 00:54:44;;;;;;;318.80;124.53;;;;;;;12.68;100.00;99604.34;341425;28;2439;-80
2023/04/23 00:54:55;;;;;;;322.17;126.33;;;;;;;12.72;100.00;99613.78;342303;28;1236;-80
2023/04/23 00:55:07;;;;;;;322.20;126.50;;;;;;;12.77;100.00;99606.50;340588;28;2724;-80
2023/04/23 00:55:20;;;;;;;322.50;126.43;;;;;;;12.76;100.00;99609.22;340839;28;1770;-80